sensor_id;sensor_type;location;lat;lon;timestamp;P1;durP1;ratioP1;P2;durP2;ratioP2
37647;SDS011;23490;53.656;10.076;2024-03-02T00:02:10;20.20;;;10.63;;
37647;SDS011;23490;53.656;10.076;2024-03-02T00:04:36;18.80;;;8.70;;
37647;SDS011;23490;53.656;10.076;2024-03-02T00:07:02;19.17;;;10.68;;
37647;SDS011;23490;53.656;10.076;2024-03-02T00:09:27;20.52;;;10.02;;
37647;SDS011;23490;53.656;10.076;2024-03-02T00:11:54;22.70;;;10.35;;
37647;SDS011;23490;53.656;10.076;2024-03-02T00:14:19;19.30;;;8.68;;
37647;SDS011;23490;53.656;10.076;2024-03-02T00:16:45;20.13;;;10.15;;
37647;SDS011;23490;53.656;10.076;2024-03-02T00:19:10;20.13;;;10.50;;
37647;SDS011;23490;53.656;10.076;2024-03-02T00:21:36;20.92;;;11.15;;
37647;SDS011;23490;53.656;10.076;2024-03-02T00:24:05;21.08;;;10.82;;
37647;SDS011;23490;53.656;10.076;2024-03-02T00:26:45;23.05;;;11.85;;
37647;SDS011;23490;53.656;10.076;2024-03-02T00:29:11;21.63;;;10.82;;
37647;SDS011;23490;53.656;10.076;2024-03-02T00:31:40;22.13;;;10.82;;
37647;SDS011;23490;53.656;10.076;2024-03-02T00:34:06;21.35;;;10.45;;
37647;SDS011;23490;53.656;10.076;2024-03-02T00:36:31;22.85;;;11.98;;
37647;SDS011;23490;53.656;10.076;2024-03-02T00:38:57;22.98;;;11.98;;
37647;SDS011;23490;53.656;10.076;2024-03-02T00:41:23;23.65;;;11.00;;
37647;SDS011;23490;53.656;10.076;2024-03-02T00:43:53;26.60;;;12.43;;
37647;SDS011;23490;53.656;10.076;2024-03-02T00:46:23;24.25;;;11.82;;
37647;SDS011;23490;53.656;10.076;2024-03-02T00:48:55;27.08;;;12.57;;
37647;SDS011;23490;53.656;10.076;2024-03-02T00:51:22;25.45;;;12.93;;
37647;SDS011;23490;53.656;10.076;2024-03-02T00:53:49;28.48;;;13.25;;
37647;SDS011;23490;53.656;10.076;2024-03-02T00:56:16;28.58;;;13.00;;
37647;SDS011;23490;53.656;10.076;2024-03-02T00:58:42;26.80;;;13.05;;
37647;SDS011;23490;53.656;10.076;2024-03-02T01:01:07;24.25;;;12.45;;
37647;SDS011;23490;53.656;10.076;2024-03-02T01:03:33;25.63;;;12.15;;
37647;SDS011;23490;53.656;10.076;2024-03-02T01:05:59;32.53;;;15.05;;
37647;SDS011;23490;53.656;10.076;2024-03-02T01:08:24;27.50;;;14.05;;
37647;SDS011;23490;53.656;10.076;2024-03-02T01:10:51;25.50;;;13.02;;
37647;SDS011;23490;53.656;10.076;2024-03-02T01:13:16;27.00;;;13.02;;
37647;SDS011;23490;53.656;10.076;2024-03-02T01:15:41;27.45;;;15.02;;
37647;SDS011;23490;53.656;10.076;2024-03-02T01:18:06;29.75;;;13.98;;
37647;SDS011;23490;53.656;10.076;2024-03-02T01:20:32;30.30;;;13.85;;
37647;SDS011;23490;53.656;10.076;2024-03-02T01:22:58;28.17;;;13.70;;
37647;SDS011;23490;53.656;10.076;2024-03-02T01:25:23;29.98;;;13.70;;
37647;SDS011;23490;53.656;10.076;2024-03-02T01:27:48;27.25;;;12.77;;
37647;SDS011;23490;53.656;10.076;2024-03-02T01:30:15;28.95;;;13.95;;
37647;SDS011;23490;53.656;10.076;2024-03-02T01:32:40;31.13;;;14.18;;
37647;SDS011;23490;53.656;10.076;2024-03-02T01:35:06;30.30;;;13.45;;
37647;SDS011;23490;53.656;10.076;2024-03-02T01:37:32;33.28;;;14.63;;
37647;SDS011;23490;53.656;10.076;2024-03-02T01:39:57;29.95;;;13.20;;
37647;SDS011;23490;53.656;10.076;2024-03-02T01:42:27;31.60;;;13.90;;
37647;SDS011;23490;53.656;10.076;2024-03-02T01:44:53;28.80;;;13.88;;
37647;SDS011;23490;53.656;10.076;2024-03-02T01:47:18;27.27;;;13.60;;
37647;SDS011;23490;53.656;10.076;2024-03-02T01:49:43;30.00;;;13.50;;
37647;SDS011;23490;53.656;10.076;2024-03-02T01:52:09;30.98;;;14.75;;
37647;SDS011;23490;53.656;10.076;2024-03-02T01:54:34;29.25;;;13.82;;
37647;SDS011;23490;53.656;10.076;2024-03-02T01:56:59;26.42;;;13.48;;
37647;SDS011;23490;53.656;10.076;2024-03-02T01:59:25;27.73;;;13.30;;
37647;SDS011;23490;53.656;10.076;2024-03-02T02:01:51;29.45;;;14.43;;
37647;SDS011;23490;53.656;10.076;2024-03-02T02:04:17;27.83;;;14.88;;
37647;SDS011;23490;53.656;10.076;2024-03-02T02:06:43;28.67;;;13.75;;
37647;SDS011;23490;53.656;10.076;2024-03-02T02:09:09;30.42;;;14.38;;
37647;SDS011;23490;53.656;10.076;2024-03-02T02:11:34;31.40;;;14.63;;
37647;SDS011;23490;53.656;10.076;2024-03-02T02:13:59;28.38;;;13.52;;
37647;SDS011;23490;53.656;10.076;2024-03-02T02:16:25;26.60;;;13.50;;
37647;SDS011;23490;53.656;10.076;2024-03-02T02:18:50;29.77;;;13.82;;
37647;SDS011;23490;53.656;10.076;2024-03-02T02:21:15;28.13;;;14.13;;
37647;SDS011;23490;53.656;10.076;2024-03-02T02:23:41;32.40;;;15.13;;
37647;SDS011;23490;53.656;10.076;2024-03-02T02:26:11;29.45;;;13.45;;
37647;SDS011;23490;53.656;10.076;2024-03-02T02:28:36;25.48;;;13.63;;
37647;SDS011;23490;53.656;10.076;2024-03-02T02:31:02;29.45;;;14.43;;
37647;SDS011;23490;53.656;10.076;2024-03-02T02:33:28;26.77;;;13.38;;
37647;SDS011;23490;53.656;10.076;2024-03-02T02:35:53;31.25;;;14.02;;
37647;SDS011;23490;53.656;10.076;2024-03-02T02:38:19;28.48;;;13.45;;
37647;SDS011;23490;53.656;10.076;2024-03-02T02:40:45;25.27;;;12.70;;
37647;SDS011;23490;53.656;10.076;2024-03-02T02:43:10;31.77;;;13.80;;
37647;SDS011;23490;53.656;10.076;2024-03-02T02:45:36;27.02;;;13.35;;
37647;SDS011;23490;53.656;10.076;2024-03-02T02:48:01;27.95;;;14.10;;
37647;SDS011;23490;53.656;10.076;2024-03-02T02:50:28;29.92;;;13.95;;
37647;SDS011;23490;53.656;10.076;2024-03-02T02:52:53;28.60;;;14.57;;
37647;SDS011;23490;53.656;10.076;2024-03-02T02:55:19;28.25;;;14.18;;
37647;SDS011;23490;53.656;10.076;2024-03-02T02:57:44;25.45;;;13.32;;
37647;SDS011;23490;53.656;10.076;2024-03-02T03:00:11;29.60;;;15.82;;
37647;SDS011;23490;53.656;10.076;2024-03-02T03:02:41;27.55;;;14.63;;
37647;SDS011;23490;53.656;10.076;2024-03-02T03:05:07;30.48;;;14.65;;
37647;SDS011;23490;53.656;10.076;2024-03-02T03:07:34;26.30;;;13.38;;
37647;SDS011;23490;53.656;10.076;2024-03-02T03:09:59;29.92;;;13.98;;
37647;SDS011;23490;53.656;10.076;2024-03-02T03:12:25;27.92;;;14.77;;
37647;SDS011;23490;53.656;10.076;2024-03-02T03:14:50;29.90;;;15.75;;
37647;SDS011;23490;53.656;10.076;2024-03-02T03:17:16;31.27;;;14.90;;
37647;SDS011;23490;53.656;10.076;2024-03-02T03:19:42;27.73;;;14.45;;
37647;SDS011;23490;53.656;10.076;2024-03-02T03:22:08;30.90;;;14.60;;
37647;SDS011;23490;53.656;10.076;2024-03-02T03:24:33;30.08;;;14.95;;
37647;SDS011;23490;53.656;10.076;2024-03-02T03:26:58;26.67;;;14.32;;
37647;SDS011;23490;53.656;10.076;2024-03-02T03:29:24;28.25;;;14.10;;
37647;SDS011;23490;53.656;10.076;2024-03-02T03:31:49;33.70;;;14.90;;
37647;SDS011;23490;53.656;10.076;2024-03-02T03:34:15;31.08;;;14.75;;
37647;SDS011;23490;53.656;10.076;2024-03-02T03:36:41;29.05;;;15.60;;
37647;SDS011;23490;53.656;10.076;2024-03-02T03:39:07;29.55;;;14.00;;
37647;SDS011;23490;53.656;10.076;2024-03-02T03:41:32;26.77;;;14.32;;
37647;SDS011;23490;53.656;10.076;2024-03-02T03:43:58;30.73;;;15.00;;
37647;SDS011;23490;53.656;10.076;2024-03-02T03:46:23;27.63;;;14.25;;
37647;SDS011;23490;53.656;10.076;2024-03-02T03:48:49;30.77;;;15.02;;
37647;SDS011;23490;53.656;10.076;2024-03-02T03:51:14;31.08;;;16.70;;
37647;SDS011;23490;53.656;10.076;2024-03-02T03:53:39;28.00;;;14.85;;
37647;SDS011;23490;53.656;10.076;2024-03-02T03:56:05;29.33;;;15.48;;
37647;SDS011;23490;53.656;10.076;2024-03-02T03:58:30;28.00;;;14.10;;
37647;SDS011;23490;53.656;10.076;2024-03-02T04:00:56;31.10;;;15.32;;
37647;SDS011;23490;53.656;10.076;2024-03-02T04:03:21;27.48;;;13.18;;
37647;SDS011;23490;53.656;10.076;2024-03-02T04:05:47;29.30;;;14.48;;
37647;SDS011;23490;53.656;10.076;2024-03-02T04:08:14;45.40;;;14.93;;
37647;SDS011;23490;53.656;10.076;2024-03-02T04:10:39;32.92;;;14.75;;
37647;SDS011;23490;53.656;10.076;2024-03-02T04:13:05;28.45;;;14.85;;
37647;SDS011;23490;53.656;10.076;2024-03-02T04:15:31;31.65;;;14.07;;
37647;SDS011;23490;53.656;10.076;2024-03-02T04:17:56;25.67;;;14.00;;
37647;SDS011;23490;53.656;10.076;2024-03-02T04:20:21;28.42;;;14.43;;
37647;SDS011;23490;53.656;10.076;2024-03-02T04:22:47;25.73;;;12.65;;
37647;SDS011;23490;53.656;10.076;2024-03-02T04:25:12;29.65;;;13.52;;
37647;SDS011;23490;53.656;10.076;2024-03-02T04:27:37;27.33;;;14.05;;
37647;SDS011;23490;53.656;10.076;2024-03-02T04:30:04;27.73;;;13.68;;
37647;SDS011;23490;53.656;10.076;2024-03-02T04:32:30;26.15;;;13.15;;
37647;SDS011;23490;53.656;10.076;2024-03-02T04:34:56;26.90;;;14.95;;
37647;SDS011;23490;53.656;10.076;2024-03-02T04:37:21;26.52;;;12.55;;
37647;SDS011;23490;53.656;10.076;2024-03-02T04:39:47;26.60;;;12.45;;
37647;SDS011;23490;53.656;10.076;2024-03-02T04:42:12;22.65;;;12.15;;
37647;SDS011;23490;53.656;10.076;2024-03-02T04:44:37;30.13;;;14.05;;
37647;SDS011;23490;53.656;10.076;2024-03-02T04:47:03;25.85;;;12.95;;
37647;SDS011;23490;53.656;10.076;2024-03-02T04:49:29;26.30;;;12.23;;
37647;SDS011;23490;53.656;10.076;2024-03-02T04:51:55;21.90;;;12.80;;
37647;SDS011;23490;53.656;10.076;2024-03-02T04:54:21;27.20;;;13.32;;
37647;SDS011;23490;53.656;10.076;2024-03-02T04:56:46;25.98;;;14.15;;
37647;SDS011;23490;53.656;10.076;2024-03-02T04:59:18;26.48;;;12.13;;
37647;SDS011;23490;53.656;10.076;2024-03-02T05:01:43;25.08;;;12.95;;
37647;SDS011;23490;53.656;10.076;2024-03-02T05:04:09;26.80;;;11.73;;
37647;SDS011;23490;53.656;10.076;2024-03-02T05:06:36;26.17;;;12.80;;
37647;SDS011;23490;53.656;10.076;2024-03-02T05:09:10;25.63;;;11.70;;
37647;SDS011;23490;53.656;10.076;2024-03-02T05:11:35;27.48;;;14.02;;
37647;SDS011;23490;53.656;10.076;2024-03-02T05:14:03;27.60;;;14.23;;
37647;SDS011;23490;53.656;10.076;2024-03-02T05:16:32;23.17;;;12.70;;
37647;SDS011;23490;53.656;10.076;2024-03-02T05:18:58;23.73;;;12.65;;
37647;SDS011;23490;53.656;10.076;2024-03-02T05:21:23;23.90;;;13.25;;
37647;SDS011;23490;53.656;10.076;2024-03-02T05:23:49;28.02;;;14.68;;
37647;SDS011;23490;53.656;10.076;2024-03-02T05:26:14;27.45;;;14.10;;
37647;SDS011;23490;53.656;10.076;2024-03-02T05:28:39;26.25;;;12.30;;
37647;SDS011;23490;53.656;10.076;2024-03-02T05:31:05;24.02;;;12.18;;
37647;SDS011;23490;53.656;10.076;2024-03-02T05:33:30;25.85;;;12.43;;
37647;SDS011;23490;53.656;10.076;2024-03-02T05:35:57;28.85;;;13.98;;
37647;SDS011;23490;53.656;10.076;2024-03-02T05:38:22;23.75;;;11.93;;
37647;SDS011;23490;53.656;10.076;2024-03-02T05:40:47;24.25;;;12.25;;
37647;SDS011;23490;53.656;10.076;2024-03-02T05:43:13;26.55;;;12.85;;
37647;SDS011;23490;53.656;10.076;2024-03-02T05:45:38;23.70;;;12.95;;
37647;SDS011;23490;53.656;10.076;2024-03-02T05:48:05;27.90;;;13.65;;
37647;SDS011;23490;53.656;10.076;2024-03-02T05:50:32;25.90;;;11.63;;
37647;SDS011;23490;53.656;10.076;2024-03-02T05:52:57;22.77;;;12.13;;
37647;SDS011;23490;53.656;10.076;2024-03-02T05:55:23;28.40;;;12.35;;
37647;SDS011;23490;53.656;10.076;2024-03-02T05:57:49;22.40;;;12.50;;
37647;SDS011;23490;53.656;10.076;2024-03-02T06:00:28;22.63;;;11.65;;
37647;SDS011;23490;53.656;10.076;2024-03-02T06:02:53;25.35;;;12.80;;
37647;SDS011;23490;53.656;10.076;2024-03-02T06:05:18;23.55;;;11.82;;
37647;SDS011;23490;53.656;10.076;2024-03-02T06:07:44;24.17;;;12.77;;
37647;SDS011;23490;53.656;10.076;2024-03-02T06:10:09;21.65;;;11.75;;
37647;SDS011;23490;53.656;10.076;2024-03-02T06:12:34;25.35;;;12.85;;
37647;SDS011;23490;53.656;10.076;2024-03-02T06:15:00;27.17;;;12.30;;
37647;SDS011;23490;53.656;10.076;2024-03-02T06:17:25;24.33;;;12.05;;
37647;SDS011;23490;53.656;10.076;2024-03-02T06:19:51;23.55;;;12.13;;
37647;SDS011;23490;53.656;10.076;2024-03-02T06:22:16;22.05;;;11.77;;
37647;SDS011;23490;53.656;10.076;2024-03-02T06:24:41;22.70;;;11.70;;
37647;SDS011;23490;53.656;10.076;2024-03-02T06:27:07;23.25;;;11.23;;
37647;SDS011;23490;53.656;10.076;2024-03-02T06:29:32;23.95;;;11.35;;
37647;SDS011;23490;53.656;10.076;2024-03-02T06:31:58;22.70;;;12.52;;
37647;SDS011;23490;53.656;10.076;2024-03-02T06:34:24;24.10;;;11.32;;
37647;SDS011;23490;53.656;10.076;2024-03-02T06:36:49;24.95;;;12.25;;
37647;SDS011;23490;53.656;10.076;2024-03-02T06:39:15;24.90;;;11.88;;
37647;SDS011;23490;53.656;10.076;2024-03-02T06:41:40;23.10;;;11.60;;
37647;SDS011;23490;53.656;10.076;2024-03-02T06:44:05;28.17;;;13.65;;
37647;SDS011;23490;53.656;10.076;2024-03-02T06:46:31;23.85;;;12.25;;
37647;SDS011;23490;53.656;10.076;2024-03-02T06:48:57;24.02;;;11.98;;
37647;SDS011;23490;53.656;10.076;2024-03-02T06:51:22;27.48;;;12.57;;
37647;SDS011;23490;53.656;10.076;2024-03-02T06:53:48;22.45;;;11.35;;
37647;SDS011;23490;53.656;10.076;2024-03-02T06:56:13;24.02;;;11.23;;
37647;SDS011;23490;53.656;10.076;2024-03-02T06:58:38;27.05;;;11.82;;
37647;SDS011;23490;53.656;10.076;2024-03-02T07:01:04;26.30;;;13.15;;
37647;SDS011;23490;53.656;10.076;2024-03-02T07:03:30;24.80;;;12.60;;
37647;SDS011;23490;53.656;10.076;2024-03-02T07:05:55;25.27;;;12.75;;
37647;SDS011;23490;53.656;10.076;2024-03-02T07:08:20;23.25;;;10.95;;
37647;SDS011;23490;53.656;10.076;2024-03-02T07:10:46;23.35;;;12.75;;
37647;SDS011;23490;53.656;10.076;2024-03-02T07:13:12;23.42;;;12.00;;
37647;SDS011;23490;53.656;10.076;2024-03-02T07:15:38;28.55;;;13.20;;
37647;SDS011;23490;53.656;10.076;2024-03-02T07:18:22;22.30;;;11.55;;
37647;SDS011;23490;53.656;10.076;2024-03-02T07:20:47;24.77;;;11.10;;
37647;SDS011;23490;53.656;10.076;2024-03-02T07:23:14;23.00;;;12.55;;
37647;SDS011;23490;53.656;10.076;2024-03-02T07:25:39;22.52;;;11.73;;
37647;SDS011;23490;53.656;10.076;2024-03-02T07:28:05;23.15;;;11.65;;
37647;SDS011;23490;53.656;10.076;2024-03-02T07:30:32;22.50;;;11.18;;
37647;SDS011;23490;53.656;10.076;2024-03-02T07:32:57;20.60;;;10.20;;
37647;SDS011;23490;53.656;10.076;2024-03-02T07:35:23;22.17;;;11.27;;
37647;SDS011;23490;53.656;10.076;2024-03-02T07:37:52;22.60;;;11.38;;
37647;SDS011;23490;53.656;10.076;2024-03-02T07:40:18;25.17;;;10.93;;
37647;SDS011;23490;53.656;10.076;2024-03-02T07:42:43;25.08;;;11.50;;
37647;SDS011;23490;53.656;10.076;2024-03-02T07:45:08;24.45;;;10.20;;
37647;SDS011;23490;53.656;10.076;2024-03-02T07:47:34;20.75;;;11.00;;
37647;SDS011;23490;53.656;10.076;2024-03-02T07:50:00;23.15;;;11.82;;
37647;SDS011;23490;53.656;10.076;2024-03-02T07:52:26;23.05;;;12.55;;
37647;SDS011;23490;53.656;10.076;2024-03-02T07:54:51;23.25;;;11.32;;
37647;SDS011;23490;53.656;10.076;2024-03-02T07:57:16;22.77;;;11.88;;
37647;SDS011;23490;53.656;10.076;2024-03-02T07:59:42;22.40;;;12.00;;
37647;SDS011;23490;53.656;10.076;2024-03-02T08:02:08;27.40;;;12.52;;
37647;SDS011;23490;53.656;10.076;2024-03-02T08:04:33;19.98;;;10.55;;
37647;SDS011;23490;53.656;10.076;2024-03-02T08:06:58;21.13;;;11.32;;
37647;SDS011;23490;53.656;10.076;2024-03-02T08:09:24;23.65;;;10.50;;
37647;SDS011;23490;53.656;10.076;2024-03-02T08:11:49;22.77;;;11.38;;
37647;SDS011;23490;53.656;10.076;2024-03-02T08:14:14;19.48;;;10.73;;
37647;SDS011;23490;53.656;10.076;2024-03-02T08:16:40;18.98;;;10.18;;
37647;SDS011;23490;53.656;10.076;2024-03-02T08:19:06;21.88;;;11.50;;
37647;SDS011;23490;53.656;10.076;2024-03-02T08:21:31;20.38;;;10.38;;
37647;SDS011;23490;53.656;10.076;2024-03-02T08:23:57;22.08;;;9.88;;
37647;SDS011;23490;53.656;10.076;2024-03-02T08:26:23;23.63;;;11.63;;
37647;SDS011;23490;53.656;10.076;2024-03-02T08:28:49;23.42;;;11.90;;
37647;SDS011;23490;53.656;10.076;2024-03-02T08:31:14;21.15;;;10.32;;
37647;SDS011;23490;53.656;10.076;2024-03-02T08:33:39;19.65;;;10.70;;
37647;SDS011;23490;53.656;10.076;2024-03-02T08:36:05;24.02;;;11.77;;
37647;SDS011;23490;53.656;10.076;2024-03-02T08:38:31;21.23;;;10.40;;
37647;SDS011;23490;53.656;10.076;2024-03-02T08:40:57;20.48;;;11.02;;
37647;SDS011;23490;53.656;10.076;2024-03-02T08:43:22;20.10;;;9.88;;
37647;SDS011;23490;53.656;10.076;2024-03-02T08:45:48;20.95;;;9.68;;
37647;SDS011;23490;53.656;10.076;2024-03-02T08:48:13;20.00;;;9.23;;
37647;SDS011;23490;53.656;10.076;2024-03-02T08:50:39;21.48;;;10.45;;
37647;SDS011;23490;53.656;10.076;2024-03-02T08:53:04;16.25;;;9.30;;
37647;SDS011;23490;53.656;10.076;2024-03-02T08:55:30;22.10;;;10.45;;
37647;SDS011;23490;53.656;10.076;2024-03-02T08:57:55;18.92;;;10.00;;
37647;SDS011;23490;53.656;10.076;2024-03-02T09:00:21;19.48;;;10.52;;
37647;SDS011;23490;53.656;10.076;2024-03-02T09:02:48;18.67;;;9.35;;
37647;SDS011;23490;53.656;10.076;2024-03-02T09:05:14;19.17;;;11.20;;
37647;SDS011;23490;53.656;10.076;2024-03-02T09:07:39;19.00;;;9.73;;
37647;SDS011;23490;53.656;10.076;2024-03-02T09:10:05;17.20;;;9.60;;
37647;SDS011;23490;53.656;10.076;2024-03-02T09:12:32;19.33;;;9.93;;
37647;SDS011;23490;53.656;10.076;2024-03-02T09:14:57;16.63;;;9.23;;
37647;SDS011;23490;53.656;10.076;2024-03-02T09:17:23;17.92;;;9.77;;
37647;SDS011;23490;53.656;10.076;2024-03-02T09:19:49;21.27;;;10.65;;
37647;SDS011;23490;53.656;10.076;2024-03-02T09:22:17;16.65;;;8.52;;
37647;SDS011;23490;53.656;10.076;2024-03-02T09:24:46;16.45;;;9.07;;
37647;SDS011;23490;53.656;10.076;2024-03-02T09:27:11;17.02;;;9.02;;
37647;SDS011;23490;53.656;10.076;2024-03-02T09:29:37;16.23;;;8.88;;
37647;SDS011;23490;53.656;10.076;2024-03-02T09:32:02;16.77;;;9.07;;
37647;SDS011;23490;53.656;10.076;2024-03-02T09:34:28;15.52;;;8.05;;
37647;SDS011;23490;53.656;10.076;2024-03-02T09:36:53;17.73;;;9.43;;
37647;SDS011;23490;53.656;10.076;2024-03-02T09:39:19;15.65;;;8.10;;
37647;SDS011;23490;53.656;10.076;2024-03-02T09:41:44;16.48;;;8.80;;
37647;SDS011;23490;53.656;10.076;2024-03-02T09:44:10;16.10;;;8.10;;
37647;SDS011;23490;53.656;10.076;2024-03-02T09:46:35;16.30;;;8.50;;
37647;SDS011;23490;53.656;10.076;2024-03-02T09:49:01;16.80;;;9.05;;
37647;SDS011;23490;53.656;10.076;2024-03-02T09:51:27;13.77;;;8.27;;
37647;SDS011;23490;53.656;10.076;2024-03-02T09:53:54;16.00;;;8.45;;
37647;SDS011;23490;53.656;10.076;2024-03-02T09:56:23;14.85;;;7.95;;
37647;SDS011;23490;53.656;10.076;2024-03-02T09:58:48;14.30;;;8.38;;
37647;SDS011;23490;53.656;10.076;2024-03-02T10:01:14;13.57;;;8.25;;
37647;SDS011;23490;53.656;10.076;2024-03-02T10:03:39;13.93;;;8.05;;
37647;SDS011;23490;53.656;10.076;2024-03-02T10:06:21;14.93;;;7.75;;
37647;SDS011;23490;53.656;10.076;2024-03-02T10:08:47;14.52;;;8.38;;
37647;SDS011;23490;53.656;10.076;2024-03-02T10:11:25;17.08;;;8.45;;
37647;SDS011;23490;53.656;10.076;2024-03-02T10:14:03;12.37;;;7.77;;
37647;SDS011;23490;53.656;10.076;2024-03-02T10:16:42;14.82;;;7.40;;
37647;SDS011;23490;53.656;10.076;2024-03-02T10:21:46;15.77;;;8.13;;
37647;SDS011;23490;53.656;10.076;2024-03-02T10:24:13;13.48;;;7.80;;
37647;SDS011;23490;53.656;10.076;2024-03-02T10:26:39;12.63;;;7.05;;
37647;SDS011;23490;53.656;10.076;2024-03-02T10:29:05;12.30;;;6.82;;
37647;SDS011;23490;53.656;10.076;2024-03-02T10:31:30;11.82;;;6.72;;
37647;SDS011;23490;53.656;10.076;2024-03-02T10:33:56;14.73;;;7.35;;
37647;SDS011;23490;53.656;10.076;2024-03-02T10:36:22;13.30;;;6.82;;
37647;SDS011;23490;53.656;10.076;2024-03-02T10:38:48;12.05;;;6.70;;
37647;SDS011;23490;53.656;10.076;2024-03-02T10:41:19;13.30;;;7.00;;
37647;SDS011;23490;53.656;10.076;2024-03-02T10:43:48;15.25;;;7.20;;
37647;SDS011;23490;53.656;10.076;2024-03-02T10:46:14;13.10;;;6.50;;
37647;SDS011;23490;53.656;10.076;2024-03-02T10:48:40;12.02;;;6.60;;
37647;SDS011;23490;53.656;10.076;2024-03-02T10:51:06;14.63;;;6.63;;
37647;SDS011;23490;53.656;10.076;2024-03-02T10:53:31;11.55;;;6.30;;
37647;SDS011;23490;53.656;10.076;2024-03-02T10:55:57;12.02;;;6.35;;
37647;SDS011;23490;53.656;10.076;2024-03-02T10:58:31;11.50;;;6.47;;
37647;SDS011;23490;53.656;10.076;2024-03-02T11:00:58;12.63;;;6.88;;
37647;SDS011;23490;53.656;10.076;2024-03-02T11:03:31;11.70;;;6.22;;
37647;SDS011;23490;53.656;10.076;2024-03-02T11:06:00;13.02;;;6.57;;
37647;SDS011;23490;53.656;10.076;2024-03-02T11:08:25;12.85;;;6.05;;
37647;SDS011;23490;53.656;10.076;2024-03-02T11:11:01;10.75;;;5.75;;
37647;SDS011;23490;53.656;10.076;2024-03-02T11:13:38;11.43;;;5.65;;
37647;SDS011;23490;53.656;10.076;2024-03-02T11:16:12;13.40;;;6.60;;
37647;SDS011;23490;53.656;10.076;2024-03-02T11:18:50;10.38;;;5.75;;
37647;SDS011;23490;53.656;10.076;2024-03-02T11:21:16;15.57;;;6.35;;
37647;SDS011;23490;53.656;10.076;2024-03-02T11:23:42;10.52;;;5.15;;
37647;SDS011;23490;53.656;10.076;2024-03-02T11:26:19;9.82;;;5.82;;
37647;SDS011;23490;53.656;10.076;2024-03-02T11:28:46;10.68;;;5.95;;
37647;SDS011;23490;53.656;10.076;2024-03-02T11:31:11;11.77;;;5.35;;
37647;SDS011;23490;53.656;10.076;2024-03-02T11:33:37;11.80;;;6.95;;
37647;SDS011;23490;53.656;10.076;2024-03-02T11:36:02;11.68;;;6.10;;
37647;SDS011;23490;53.656;10.076;2024-03-02T11:38:30;11.27;;;5.53;;
37647;SDS011;23490;53.656;10.076;2024-03-02T11:40:57;12.23;;;6.15;;
37647;SDS011;23490;53.656;10.076;2024-03-02T11:43:24;11.45;;;6.22;;
37647;SDS011;23490;53.656;10.076;2024-03-02T11:46:03;12.55;;;6.60;;
37647;SDS011;23490;53.656;10.076;2024-03-02T11:48:32;14.40;;;7.80;;
37647;SDS011;23490;53.656;10.076;2024-03-02T11:50:59;10.90;;;5.38;;
37647;SDS011;23490;53.656;10.076;2024-03-02T11:53:26;12.48;;;6.47;;
37647;SDS011;23490;53.656;10.076;2024-03-02T11:55:55;9.95;;;5.95;;
37647;SDS011;23490;53.656;10.076;2024-03-02T11:58:20;11.45;;;6.22;;
37647;SDS011;23490;53.656;10.076;2024-03-02T12:00:52;11.10;;;6.38;;
37647;SDS011;23490;53.656;10.076;2024-03-02T12:03:18;10.02;;;5.82;;
37647;SDS011;23490;53.656;10.076;2024-03-02T12:05:47;11.63;;;5.82;;
37647;SDS011;23490;53.656;10.076;2024-03-02T12:08:14;11.68;;;6.00;;
37647;SDS011;23490;53.656;10.076;2024-03-02T12:10:40;10.02;;;5.72;;
37647;SDS011;23490;53.656;10.076;2024-03-02T12:13:06;11.23;;;6.05;;
37647;SDS011;23490;53.656;10.076;2024-03-02T12:15:36;11.02;;;5.55;;
37647;SDS011;23490;53.656;10.076;2024-03-02T12:20:28;11.38;;;5.28;;
37647;SDS011;23490;53.656;10.076;2024-03-02T12:22:57;12.10;;;5.38;;
37647;SDS011;23490;53.656;10.076;2024-03-02T12:25:24;9.57;;;5.10;;
37647;SDS011;23490;53.656;10.076;2024-03-02T12:27:50;12.07;;;6.22;;
37647;SDS011;23490;53.656;10.076;2024-03-02T12:30:17;8.95;;;5.07;;
37647;SDS011;23490;53.656;10.076;2024-03-02T12:32:46;10.95;;;5.07;;
37647;SDS011;23490;53.656;10.076;2024-03-02T12:35:12;9.80;;;5.63;;
37647;SDS011;23490;53.656;10.076;2024-03-02T12:37:42;9.90;;;4.90;;
37647;SDS011;23490;53.656;10.076;2024-03-02T12:40:11;8.98;;;5.40;;
37647;SDS011;23490;53.656;10.076;2024-03-02T12:42:38;11.25;;;5.18;;
37647;SDS011;23490;53.656;10.076;2024-03-02T12:45:04;11.23;;;5.72;;
37647;SDS011;23490;53.656;10.076;2024-03-02T12:47:30;10.68;;;5.72;;
37647;SDS011;23490;53.656;10.076;2024-03-02T12:49:55;10.57;;;5.57;;
37647;SDS011;23490;53.656;10.076;2024-03-02T12:52:21;9.35;;;5.28;;
37647;SDS011;23490;53.656;10.076;2024-03-02T12:54:47;11.85;;;5.95;;
37647;SDS011;23490;53.656;10.076;2024-03-02T12:57:16;13.38;;;6.15;;
37647;SDS011;23490;53.656;10.076;2024-03-02T12:59:45;11.02;;;5.32;;
37647;SDS011;23490;53.656;10.076;2024-03-02T13:02:16;11.10;;;5.32;;
37647;SDS011;23490;53.656;10.076;2024-03-02T13:04:42;9.10;;;5.03;;
37647;SDS011;23490;53.656;10.076;2024-03-02T13:07:08;8.73;;;5.47;;
37647;SDS011;23490;53.656;10.076;2024-03-02T13:09:33;10.02;;;5.80;;
37647;SDS011;23490;53.656;10.076;2024-03-02T13:12:00;10.40;;;5.70;;
37647;SDS011;23490;53.656;10.076;2024-03-02T13:14:26;9.57;;;5.80;;
37647;SDS011;23490;53.656;10.076;2024-03-02T13:16:51;10.63;;;5.85;;
37647;SDS011;23490;53.656;10.076;2024-03-02T13:19:17;11.25;;;5.53;;
37647;SDS011;23490;53.656;10.076;2024-03-02T13:21:46;10.55;;;5.28;;
37647;SDS011;23490;53.656;10.076;2024-03-02T13:24:11;12.02;;;5.40;;
37647;SDS011;23490;53.656;10.076;2024-03-02T13:26:37;9.55;;;5.43;;
37647;SDS011;23490;53.656;10.076;2024-03-02T13:29:02;9.75;;;4.95;;
37647;SDS011;23490;53.656;10.076;2024-03-02T13:31:27;11.07;;;5.03;;
37647;SDS011;23490;53.656;10.076;2024-03-02T13:33:53;10.30;;;5.28;;
37647;SDS011;23490;53.656;10.076;2024-03-02T13:36:18;9.55;;;4.60;;
37647;SDS011;23490;53.656;10.076;2024-03-02T13:38:44;8.85;;;5.05;;
37647;SDS011;23490;53.656;10.076;2024-03-02T13:41:09;11.00;;;4.72;;
37647;SDS011;23490;53.656;10.076;2024-03-02T13:43:36;10.55;;;5.35;;
37647;SDS011;23490;53.656;10.076;2024-03-02T13:46:03;10.32;;;5.45;;
37647;SDS011;23490;53.656;10.076;2024-03-02T13:48:29;9.80;;;4.75;;
37647;SDS011;23490;53.656;10.076;2024-03-02T13:50:55;8.63;;;4.30;;
37647;SDS011;23490;53.656;10.076;2024-03-02T13:53:20;9.60;;;5.28;;
37647;SDS011;23490;53.656;10.076;2024-03-02T13:55:46;9.85;;;4.63;;
37647;SDS011;23490;53.656;10.076;2024-03-02T13:58:11;9.05;;;4.43;;
37647;SDS011;23490;53.656;10.076;2024-03-02T14:00:37;10.35;;;4.78;;
37647;SDS011;23490;53.656;10.076;2024-03-02T14:03:04;10.70;;;4.93;;
37647;SDS011;23490;53.656;10.076;2024-03-02T14:05:31;9.38;;;4.82;;
37647;SDS011;23490;53.656;10.076;2024-03-02T14:07:56;8.55;;;4.30;;
37647;SDS011;23490;53.656;10.076;2024-03-02T14:10:22;8.88;;;4.90;;
37647;SDS011;23490;53.656;10.076;2024-03-02T14:12:48;8.68;;;4.22;;
37647;SDS011;23490;53.656;10.076;2024-03-02T14:15:13;8.32;;;4.20;;